createdAt,value
2022-11-26T00:00:56.428Z,6.86
2022-11-26T00:03:23.977Z,6.81
2022-11-26T00:05:55.005Z,6.63
2022-11-26T00:08:35.008Z,6.59
2022-11-26T00:11:03.028Z,6.60
2022-11-26T00:13:31.399Z,6.57
2022-11-26T00:15:58.932Z,6.59
2022-11-26T00:18:29.152Z,6.61
2022-11-26T00:21:00.666Z,6.71
2022-11-26T00:23:28.691Z,6.71
2022-11-26T00:26:02.581Z,6.70
2022-11-26T00:28:35.431Z,6.64
2022-11-26T00:31:06.503Z,6.60
2022-11-26T00:33:34.083Z,6.64
2022-11-26T00:36:15.946Z,6.65
2022-11-26T00:38:43.775Z,6.60
2022-11-26T00:41:19.225Z,6.59
2022-11-26T00:43:46.871Z,6.65
2022-11-26T00:46:19.991Z,6.69
2022-11-26T00:48:47.944Z,6.56
2022-11-26T00:51:18.223Z,6.70
2022-11-26T00:53:46.735Z,6.72
2022-11-26T00:56:18.234Z,6.70
2022-11-26T00:58:48.099Z,6.59
2022-11-26T01:01:21.484Z,6.67
2022-11-26T01:03:49.357Z,6.74
2022-11-26T01:06:26.222Z,6.82
2022-11-26T01:08:53.644Z,6.80
2022-11-26T01:11:23.152Z,6.67
2022-11-26T01:13:52.923Z,6.66
2022-11-26T01:16:29.416Z,6.69
2022-11-26T01:18:59.031Z,6.73
2022-11-26T01:21:28.630Z,6.78
2022-11-26T01:23:56.781Z,6.75
2022-11-26T01:26:31.811Z,6.66
2022-11-26T01:28:59.265Z,6.64
2022-11-26T01:31:28.614Z,6.70
2022-11-26T01:33:56.856Z,6.70
2022-11-26T01:36:32.948Z,6.74
2022-11-26T01:39:04.562Z,6.82
2022-11-26T01:41:34.914Z,6.77
2022-11-26T01:44:05.725Z,6.77
2022-11-26T01:46:42.020Z,6.80
2022-11-26T01:49:29.815Z,6.75
2022-11-26T01:52:21.651Z,6.83
2022-11-26T01:54:50.357Z,6.83
2022-11-26T01:57:22.039Z,6.86
2022-11-26T01:59:52.929Z,6.81
2022-11-26T02:02:23.435Z,6.82
2022-11-26T02:04:59.743Z,6.72
2022-11-26T02:07:27.216Z,6.79
2022-11-26T02:09:54.980Z,6.78
2022-11-26T02:12:22.655Z,6.80
2022-11-26T02:14:50.066Z,6.80
2022-11-26T02:17:36.886Z,6.81
2022-11-26T02:20:35.232Z,6.79
2022-11-26T02:23:18.612Z,6.81
2022-11-26T02:26:07.617Z,6.66
2022-11-26T02:29:02.375Z,6.63
2022-11-26T02:32:00.452Z,6.67
2022-11-26T02:34:48.749Z,6.59
2022-11-26T02:37:30.685Z,6.52
2022-11-26T02:39:58.450Z,6.56
2022-11-26T02:42:34.168Z,6.42
2022-11-26T02:45:26.446Z,6.41
2022-11-26T02:47:57.680Z,6.42
2022-11-26T02:50:27.885Z,6.42
2022-11-26T02:52:58.485Z,6.52
2022-11-26T02:55:30.546Z,6.55
2022-11-26T02:57:58.283Z,6.52
2022-11-26T03:00:26.258Z,6.52
2022-11-26T03:03:04.032Z,6.57
2022-11-26T03:05:34.868Z,6.63
2022-11-26T03:08:04.038Z,6.66
2022-11-26T03:10:32.531Z,6.60
2022-11-26T03:13:00.155Z,6.60
2022-11-26T03:15:28.368Z,6.63
2022-11-26T03:17:55.768Z,6.53
2022-11-26T03:20:23.187Z,6.54
2022-11-26T03:22:50.819Z,6.53
2022-11-26T03:25:18.512Z,6.50
2022-11-26T03:27:46.028Z,6.55
2022-11-26T03:30:13.751Z,6.52
2022-11-26T03:32:41.346Z,6.54
2022-11-26T03:35:09.191Z,6.56
2022-11-26T03:37:37.085Z,6.54
2022-11-26T03:40:05.255Z,6.47
2022-11-26T03:42:33.009Z,6.39
2022-11-26T03:45:00.423Z,6.27
2022-11-26T03:47:28.899Z,6.21
2022-11-26T03:49:56.875Z,6.21
2022-11-26T03:52:24.400Z,6.20
2022-11-26T03:54:51.935Z,6.16
2022-11-26T03:57:20.235Z,6.19
2022-11-26T03:59:47.834Z,6.20
2022-11-26T04:02:15.696Z,6.25
2022-11-26T04:04:43.148Z,6.23
2022-11-26T04:07:10.731Z,6.26
2022-11-26T04:09:38.230Z,6.10
2022-11-26T04:12:11.424Z,6.09
2022-11-26T04:14:44.883Z,5.92
2022-11-26T04:17:12.595Z,6.03
2022-11-26T04:19:40.115Z,6.15
2022-11-26T04:22:07.608Z,6.13
2022-11-26T04:24:35.060Z,6.05
2022-11-26T04:27:02.603Z,6.05
2022-11-26T04:29:30.128Z,5.95
2022-11-26T04:31:57.646Z,6.03
2022-11-26T04:34:25.161Z,6.08
2022-11-26T04:36:52.575Z,6.06
2022-11-26T04:39:20.139Z,5.93
2022-11-26T04:41:47.737Z,5.99
2022-11-26T04:44:15.271Z,5.95
2022-11-26T04:46:42.765Z,5.85
2022-11-26T04:49:10.255Z,5.88
2022-11-26T04:51:37.684Z,5.85
2022-11-26T04:54:09.931Z,5.70
2022-11-26T04:56:40.625Z,5.75
2022-11-26T04:59:08.208Z,5.79
2022-11-26T05:01:35.997Z,5.95
2022-11-26T05:04:03.925Z,5.99
2022-11-26T05:06:31.428Z,5.99
2022-11-26T05:08:59.530Z,5.99
2022-11-26T05:11:26.999Z,5.97
2022-11-26T05:13:54.492Z,6.05
2022-11-26T05:16:22.061Z,6.03
2022-11-26T05:18:49.801Z,6.01
2022-11-26T05:21:17.346Z,5.96
2022-11-26T05:23:44.737Z,6.02
2022-11-26T05:26:12.191Z,6.04
2022-11-26T05:28:39.698Z,6.05
2022-11-26T05:31:07.160Z,5.99
2022-11-26T05:33:34.799Z,5.88
2022-11-26T05:36:02.223Z,5.95
2022-11-26T05:38:29.660Z,5.80
2022-11-26T05:40:57.176Z,5.82
2022-11-26T05:43:24.710Z,5.87
2022-11-26T05:45:52.176Z,5.77
2022-11-26T05:48:19.702Z,5.82
2022-11-26T05:50:51.545Z,5.78
2022-11-26T05:53:21.854Z,5.77
2022-11-26T05:55:49.236Z,5.81
2022-11-26T05:58:16.639Z,5.83
2022-11-26T06:00:44.124Z,5.77
2022-11-26T06:03:13.519Z,5.67
2022-11-26T06:05:44.852Z,5.70
2022-11-26T06:08:12.273Z,5.72
2022-11-26T06:10:42.463Z,5.72
2022-11-26T06:13:10.245Z,5.57
2022-11-26T06:15:37.743Z,5.58
2022-11-26T06:18:05.237Z,5.51
2022-11-26T06:20:32.697Z,5.46
2022-11-26T06:23:00.373Z,5.51
2022-11-26T06:25:27.787Z,5.59
2022-11-26T06:27:55.964Z,5.64
2022-11-26T06:30:23.852Z,5.67
2022-11-26T06:32:51.316Z,5.61
2022-11-26T06:35:18.820Z,5.68
2022-11-26T06:37:46.260Z,5.64
2022-11-26T06:40:17.724Z,5.60
2022-11-26T06:42:52.229Z,5.63
2022-11-26T06:45:23.796Z,5.64
2022-11-26T06:47:51.684Z,5.70
2022-11-26T06:50:21.410Z,5.63
2022-11-26T06:52:53.366Z,5.69
2022-11-26T06:55:21.561Z,5.78
2022-11-26T06:57:51.361Z,5.82
2022-11-26T07:00:20.042Z,5.92
2022-11-26T07:02:47.628Z,5.90
2022-11-26T07:05:15.254Z,5.89
2022-11-26T07:07:42.796Z,5.91
2022-11-26T07:10:10.716Z,5.84
2022-11-26T07:12:38.385Z,5.83
2022-11-26T07:15:06.226Z,5.88
2022-11-26T07:17:33.720Z,5.84
2022-11-26T07:20:01.354Z,5.83
2022-11-26T07:22:28.894Z,5.93
2022-11-26T07:24:56.462Z,5.85
2022-11-26T07:27:26.011Z,6.00
2022-11-26T07:29:53.487Z,5.90
2022-11-26T07:32:21.111Z,5.82
2022-11-26T07:34:48.640Z,5.84
2022-11-26T07:37:16.819Z,5.95
2022-11-26T07:39:44.300Z,6.08
2022-11-26T07:42:11.750Z,6.14
2022-11-26T07:44:39.589Z,6.11
2022-11-26T07:47:07.196Z,6.25
2022-11-26T07:49:35.348Z,6.27
2022-11-26T07:52:03.220Z,6.18
2022-11-26T07:54:30.640Z,6.34
2022-11-26T07:56:58.105Z,6.37
2022-11-26T07:59:25.601Z,6.36
2022-11-26T08:01:53.583Z,6.42
2022-11-26T08:04:21.181Z,6.48
2022-11-26T08:06:48.656Z,6.65
2022-11-26T08:09:16.200Z,6.69
2022-11-26T08:11:43.707Z,6.66
2022-11-26T08:14:12.523Z,6.83
2022-11-26T08:16:41.025Z,6.94
2022-11-26T08:19:13.304Z,6.91
2022-11-26T08:21:41.064Z,7.10
2022-11-26T08:24:14.398Z,7.23
2022-11-26T08:26:44.528Z,7.37
2022-11-26T08:29:13.421Z,7.48
2022-11-26T08:31:45.600Z,7.62
2022-11-26T08:34:15.279Z,7.75
2022-11-26T08:36:43.810Z,7.86
2022-11-26T08:39:18.907Z,8.01
2022-11-26T08:41:52.089Z,8.03
2022-11-26T08:44:21.280Z,8.16
2022-11-26T08:46:49.340Z,8.39
2022-11-26T08:49:17.134Z,8.47
2022-11-26T08:51:44.877Z,8.58
2022-11-26T08:54:12.545Z,8.74
2022-11-26T08:56:40.177Z,8.86
2022-11-26T08:59:07.619Z,8.91
2022-11-26T09:01:35.202Z,8.96
2022-11-26T09:04:04.463Z,9.03
2022-11-26T09:06:33.739Z,9.16
2022-11-26T09:09:14.358Z,9.24
2022-11-26T09:11:56.486Z,9.32
2022-11-26T09:14:27.297Z,9.55
2022-11-26T09:16:56.302Z,9.64
2022-11-26T09:19:24.786Z,9.71
2022-11-26T09:21:52.298Z,9.76
2022-11-26T09:24:20.228Z,9.81
2022-11-26T09:26:50.341Z,9.85
2022-11-26T09:29:22.534Z,9.90
2022-11-26T09:34:39.946Z,10.06
2022-11-26T09:37:07.835Z,10.12
2022-11-26T09:39:35.531Z,10.26
2022-11-26T09:42:29.263Z,10.37
2022-11-26T09:45:21.032Z,10.39
2022-11-26T09:47:53.633Z,10.44
2022-11-26T09:50:28.043Z,10.49
2022-11-26T09:53:01.373Z,10.54
2022-11-26T09:55:35.167Z,10.63
2022-11-26T09:58:26.563Z,10.70
2022-11-26T10:00:58.465Z,10.74
2022-11-26T10:03:33.216Z,10.80
2022-11-26T10:06:00.811Z,10.85
2022-11-26T10:08:59.281Z,10.92
2022-11-26T10:11:49.257Z,10.96
2022-11-26T10:14:41.486Z,11.07
2022-11-26T10:17:46.881Z,11.13
2022-11-26T10:20:23.326Z,11.26
2022-11-26T10:22:57.729Z,11.25
2022-11-26T10:25:31.600Z,11.25
2022-11-26T10:28:00.175Z,11.27
2022-11-26T10:30:30.285Z,11.28
2022-11-26T10:33:02.435Z,11.33
2022-11-26T10:35:30.546Z,11.38
2022-11-26T10:37:58.439Z,11.45
2022-11-26T10:40:31.568Z,11.53
2022-11-26T10:43:11.183Z,11.61
2022-11-26T10:45:50.238Z,11.65
2022-11-26T10:48:28.067Z,11.64
2022-11-26T10:51:13.531Z,11.82
2022-11-26T10:53:53.092Z,11.84
2022-11-26T10:56:24.136Z,11.80
2022-11-26T10:58:53.280Z,11.82
2022-11-26T11:01:20.971Z,11.92
2022-11-26T11:04:08.712Z,12.02
2022-11-26T11:06:44.815Z,12.17
2022-11-26T11:09:27.495Z,12.45
2022-11-26T11:12:13.699Z,12.43
2022-11-26T11:14:43.419Z,12.69
2022-11-26T11:17:31.764Z,13.03
2022-11-26T11:20:25.756Z,13.24
2022-11-26T11:23:06.964Z,13.29
2022-11-26T11:25:37.055Z,13.35
2022-11-26T11:28:20.659Z,13.32
2022-11-26T11:30:59.148Z,13.51
2022-11-26T11:33:28.932Z,13.66
2022-11-26T11:36:19.290Z,13.73
2022-11-26T11:39:08.932Z,13.66
2022-11-26T11:41:46.484Z,13.68
2022-11-26T11:44:24.281Z,13.71
2022-11-26T11:47:10.974Z,13.68
2022-11-26T11:49:56.806Z,13.84
2022-11-26T11:52:54.160Z,13.84
2022-11-26T11:55:43.456Z,13.85
2022-11-26T11:58:38.545Z,13.75
2022-11-26T12:01:43.882Z,13.80
2022-11-26T12:04:23.500Z,13.88
2022-11-26T12:07:14.425Z,13.90
2022-11-26T12:09:56.223Z,13.83
2022-11-26T12:12:35.011Z,13.88
2022-11-26T12:15:25.872Z,13.88
2022-11-26T12:18:02.414Z,13.91
2022-11-26T12:20:39.193Z,13.94
2022-11-26T12:23:22.824Z,14.00
2022-11-26T12:25:57.182Z,13.93
2022-11-26T12:28:29.329Z,13.90
2022-11-26T12:31:05.872Z,13.89
2022-11-26T12:34:08.744Z,13.97
2022-11-26T12:36:45.704Z,13.95
2022-11-26T12:39:20.212Z,13.98
2022-11-26T12:41:55.600Z,13.96
2022-11-26T12:44:36.927Z,13.91
2022-11-26T12:51:16.724Z,13.80
2022-11-26T12:53:47.761Z,13.91
2022-11-26T12:56:47.504Z,13.93
2022-11-26T12:59:37.535Z,13.84
2022-11-26T13:02:36.789Z,13.94
2022-11-26T13:05:04.947Z,13.87
2022-11-26T13:07:58.032Z,13.98
2022-11-26T13:11:09.934Z,13.90
2022-11-26T13:13:49.792Z,13.90
2022-11-26T13:16:44.003Z,13.85
2022-11-26T13:19:20.860Z,13.86
2022-11-26T13:22:25.637Z,13.91
2022-11-26T13:25:08.916Z,13.86
2022-11-26T13:27:53.409Z,13.75
2022-11-26T13:30:41.285Z,13.79
2022-11-26T13:33:08.844Z,13.78
2022-11-26T13:35:59.684Z,13.89
2022-11-26T13:39:08.396Z,13.71
2022-11-26T13:41:59.030Z,13.70
2022-11-26T13:44:32.355Z,13.84
2022-11-26T13:47:14.100Z,13.78
2022-11-26T13:49:53.252Z,13.86
2022-11-26T13:52:34.998Z,13.80
2022-11-26T13:57:57.167Z,13.65
2022-11-26T14:00:29.561Z,13.57
2022-11-26T14:03:09.560Z,13.43
2022-11-26T14:06:08.172Z,13.46
2022-11-26T14:08:40.267Z,13.46
2022-11-26T14:11:10.095Z,13.59
2022-11-26T14:13:49.032Z,13.65
2022-11-26T14:16:24.582Z,13.53
2022-11-26T14:19:12.464Z,13.46
2022-11-26T14:22:11.176Z,13.39
2022-11-26T14:25:08.720Z,13.25
2022-11-26T14:28:00.123Z,13.18
2022-11-26T14:30:38.270Z,13.18
2022-11-26T14:33:19.264Z,13.17
2022-11-26T14:36:03.781Z,13.09
2022-11-26T14:38:39.337Z,13.03
2022-11-26T14:41:15.003Z,12.90
2022-11-26T14:43:47.905Z,12.85
2022-11-26T14:46:20.707Z,12.81
2022-11-26T14:49:10.570Z,12.84
2022-11-26T14:51:45.410Z,12.78
2022-11-26T14:54:35.303Z,12.64
2022-11-26T14:57:32.992Z,12.67
2022-11-26T15:00:29.582Z,12.67
2022-11-26T15:03:07.547Z,12.58
2022-11-26T15:05:42.055Z,12.60
2022-11-26T15:08:27.265Z,12.45
2022-11-26T15:11:02.044Z,12.52
2022-11-26T15:13:44.956Z,12.48
2022-11-26T15:16:38.114Z,12.49
2022-11-26T15:19:09.348Z,12.29
2022-11-26T15:21:47.228Z,12.28
2022-11-26T15:24:18.671Z,12.28
2022-11-26T15:26:50.664Z,12.16
2022-11-26T15:29:42.696Z,12.08
2022-11-26T15:32:30.337Z,11.97
2022-11-26T15:35:27.742Z,11.87
2022-11-26T15:37:57.712Z,11.75
2022-11-26T15:40:47.380Z,11.78
2022-11-26T15:43:39.139Z,11.70
2022-11-26T15:46:41.955Z,11.62
2022-11-26T15:49:27.940Z,11.47
2022-11-26T15:52:08.585Z,11.44
2022-11-26T15:55:11.882Z,11.17
2022-11-26T15:57:33.499Z,11.33
2022-11-26T16:00:37.059Z,11.28
2022-11-26T16:03:35.045Z,11.25
2022-11-26T16:06:13.489Z,11.14
2022-11-26T16:08:59.955Z,11.15
2022-11-26T16:11:40.627Z,11.13
2022-11-26T16:14:40.125Z,11.08
2022-11-26T16:17:30.729Z,10.86
2022-11-26T16:20:01.355Z,10.76
2022-11-26T16:22:38.016Z,10.67
2022-11-26T16:25:32.075Z,10.41
2022-11-26T16:28:18.245Z,10.37
2022-11-26T16:30:47.126Z,10.26
2022-11-26T16:33:27.836Z,10.19
2022-11-26T16:35:57.907Z,10.22
2022-11-26T16:38:27.389Z,10.25
2022-11-26T16:40:55.459Z,10.29
2022-11-26T16:43:23.116Z,10.13
2022-11-26T16:45:58.266Z,10.32
2022-11-26T16:48:28.110Z,10.36
2022-11-26T16:50:56.270Z,10.28
2022-11-26T16:53:23.821Z,10.24
2022-11-26T16:55:53.574Z,10.20
2022-11-26T16:58:33.628Z,10.15
2022-11-26T17:01:01.523Z,10.12
2022-11-26T17:03:33.051Z,10.11
2022-11-26T17:06:03.049Z,10.15
2022-11-26T17:08:30.920Z,10.21
2022-11-26T17:10:58.425Z,9.99
2022-11-26T17:13:28.847Z,9.95
2022-11-26T17:15:56.743Z,9.79
2022-11-26T17:18:25.572Z,9.73
2022-11-26T17:20:54.141Z,9.70
2022-11-26T17:23:21.686Z,9.67
2022-11-26T17:25:52.379Z,9.56
2022-11-26T17:28:21.272Z,9.50
2022-11-26T17:30:49.311Z,9.44
2022-11-26T17:33:16.838Z,9.36
2022-11-26T17:35:44.270Z,9.22
2022-11-26T17:38:17.452Z,9.24
2022-11-26T17:40:46.213Z,9.26
2022-11-26T17:43:14.435Z,9.16
2022-11-26T17:45:42.005Z,9.06
2022-11-26T17:48:24.261Z,8.89
2022-11-26T17:50:53.946Z,8.81
2022-11-26T17:53:21.547Z,8.77
2022-11-26T17:55:48.975Z,8.74
2022-11-26T17:58:16.401Z,8.52
2022-11-26T18:00:43.904Z,8.51
2022-11-26T18:03:11.311Z,8.50
2022-11-26T18:05:42.058Z,8.55
2022-11-26T18:08:09.873Z,8.65
2022-11-26T18:10:41.041Z,8.67
2022-11-26T18:13:08.466Z,8.60
2022-11-26T18:15:35.925Z,8.69
2022-11-26T18:18:04.486Z,8.58
2022-11-26T18:20:32.027Z,8.47
2022-11-26T18:23:00.594Z,8.50
2022-11-26T18:25:29.164Z,8.59
2022-11-26T18:27:56.595Z,8.63
2022-11-26T18:30:24.766Z,8.58
2022-11-26T18:32:52.429Z,8.42
2022-11-26T18:35:19.839Z,8.35
2022-11-26T18:37:47.243Z,8.26
2022-11-26T18:40:17.486Z,8.17
2022-11-26T18:42:45.229Z,8.15
2022-11-26T18:45:15.700Z,8.12
2022-11-26T18:47:43.755Z,8.12
2022-11-26T18:50:11.562Z,8.11
2022-11-26T18:52:39.828Z,8.09
2022-11-26T18:55:08.375Z,8.02
2022-11-26T18:57:36.485Z,7.86
2022-11-26T19:00:05.533Z,7.74
2022-11-26T19:02:35.524Z,7.84
2022-11-26T19:05:03.583Z,7.95
2022-11-26T19:07:32.751Z,7.92
2022-11-26T19:10:00.136Z,7.80
2022-11-26T19:12:27.516Z,7.86
2022-11-26T19:14:54.931Z,7.83
2022-11-26T19:17:22.302Z,7.81
2022-11-26T19:19:49.670Z,7.82
2022-11-26T19:22:17.091Z,7.84
2022-11-26T19:24:44.499Z,7.70
2022-11-26T19:27:13.348Z,7.62
2022-11-26T19:29:40.902Z,7.64
2022-11-26T19:32:08.539Z,7.59
2022-11-26T19:34:35.974Z,7.58
2022-11-26T19:37:03.386Z,7.68
2022-11-26T19:39:31.539Z,7.62
2022-11-26T19:41:59.917Z,7.56
2022-11-26T19:44:27.317Z,7.53
2022-11-26T19:46:54.719Z,7.43
2022-11-26T19:49:22.956Z,7.36
2022-11-26T19:51:50.364Z,7.39
2022-11-26T19:54:17.774Z,7.34
2022-11-26T19:56:46.047Z,7.36
2022-11-26T19:59:13.804Z,7.29
2022-11-26T20:01:41.608Z,7.24
2022-11-26T20:04:14.012Z,7.25
2022-11-26T20:06:41.852Z,7.22
2022-11-26T20:09:12.248Z,7.22
2022-11-26T20:11:41.101Z,7.29
2022-11-26T20:14:10.656Z,7.18
2022-11-26T20:16:39.977Z,7.22
2022-11-26T20:19:07.610Z,7.18
2022-11-26T20:21:35.455Z,7.12
2022-11-26T20:24:07.902Z,7.01
2022-11-26T20:26:38.066Z,7.15
2022-11-26T20:29:10.636Z,7.06
2022-11-26T20:31:45.813Z,7.10
2022-11-26T20:34:14.636Z,7.20
2022-11-26T20:36:42.543Z,7.11
2022-11-26T20:39:15.227Z,7.13
2022-11-26T20:42:01.058Z,7.08
2022-11-26T20:44:28.675Z,7.09
2022-11-26T20:46:57.040Z,6.99
2022-11-26T20:49:25.887Z,7.10
2022-11-26T20:51:54.818Z,7.04
2022-11-26T20:54:22.219Z,7.02
2022-11-26T20:56:49.691Z,6.97
2022-11-26T20:59:17.190Z,6.93
2022-11-26T21:01:44.581Z,6.99
2022-11-26T21:04:11.996Z,6.95
2022-11-26T21:06:42.751Z,6.89
2022-11-26T21:09:12.614Z,6.84
2022-11-26T21:11:41.546Z,6.88
2022-11-26T21:14:14.655Z,6.80
2022-11-26T21:16:42.709Z,6.83
2022-11-26T21:19:12.355Z,6.92
2022-11-26T21:21:40.063Z,6.95
2022-11-26T21:24:08.135Z,6.94
2022-11-26T21:26:35.555Z,6.87
2022-11-26T21:29:03.455Z,6.92
2022-11-26T21:31:32.038Z,6.87
2022-11-26T21:34:02.645Z,6.75
2022-11-26T21:36:34.867Z,6.87
2022-11-26T21:39:02.882Z,6.80
2022-11-26T21:41:33.500Z,6.85
2022-11-26T21:44:04.206Z,6.77
2022-11-26T21:46:37.981Z,6.85
2022-11-26T21:49:07.137Z,6.88
2022-11-26T21:51:34.555Z,6.89
2022-11-26T21:54:02.199Z,6.92
2022-11-26T21:56:31.628Z,6.88
2022-11-26T21:59:00.599Z,6.83
2022-11-26T22:01:30.708Z,6.86
2022-11-26T22:04:00.941Z,6.76
2022-11-26T22:06:28.482Z,6.81
2022-11-26T22:08:56.427Z,6.77
2022-11-26T22:11:30.041Z,6.70
2022-11-26T22:13:57.646Z,6.59
2022-11-26T22:16:27.309Z,6.59
2022-11-26T22:18:56.453Z,6.60
2022-11-26T22:21:26.273Z,6.52
2022-11-26T22:23:53.728Z,6.52
2022-11-26T22:26:21.758Z,6.50
2022-11-26T22:28:50.313Z,6.44
2022-11-26T22:31:19.595Z,6.47
2022-11-26T22:33:47.253Z,6.45
2022-11-26T22:36:15.077Z,6.43
2022-11-26T22:38:42.608Z,6.42
2022-11-26T22:41:13.003Z,6.50
2022-11-26T22:43:41.434Z,6.42
2022-11-26T22:46:18.317Z,6.53
2022-11-26T22:48:55.884Z,6.59
2022-11-26T22:51:25.868Z,6.48
2022-11-26T22:53:59.282Z,6.52
2022-11-26T22:56:27.231Z,6.45
2022-11-26T22:58:55.203Z,6.58
2022-11-26T23:01:25.817Z,6.41
2022-11-26T23:03:54.418Z,6.39
2022-11-26T23:06:23.983Z,6.35
2022-11-26T23:08:51.947Z,6.28
2022-11-26T23:11:31.844Z,6.23
2022-11-26T23:13:59.402Z,5.98
2022-11-26T23:16:27.446Z,6.12
2022-11-26T23:18:56.877Z,6.02
2022-11-26T23:21:27.668Z,5.99
2022-11-26T23:23:55.531Z,5.99
2022-11-26T23:26:28.934Z,6.08
2022-11-26T23:28:58.529Z,6.08
2022-11-26T23:31:29.252Z,6.07
2022-11-26T23:33:56.920Z,5.94
2022-11-26T23:36:26.213Z,5.88
2022-11-26T23:38:54.409Z,5.85
2022-11-26T23:41:22.036Z,5.91
2022-11-26T23:43:49.557Z,5.90
2022-11-26T23:46:20.422Z,5.86
2022-11-26T23:49:22.135Z,5.82
2022-11-26T23:51:49.640Z,5.93
2022-11-26T23:54:17.186Z,5.85
2022-11-26T23:56:44.709Z,5.93
2022-11-26T23:59:12.516Z,6.01
